Time;durP1;ratioP1;P1;durP2;ratioP2;P2;SDS_P1;SDS_P2;PMS_P1;PMS_P2;Temp;Humidity;BMP_temperature;BMP_pressure;BME280_temperature;BME280_humidity;BME280_pressure;Samples;Min_cycle;Max_cycle;Signal;HPM_P1;HPM_P2
2022/08/13 00:01:37;;;;;;;11.07;2.42;;;24.00;89.80;;;;;;4992616;28;20555;-81
2022/08/13 00:04:15;;;;;;;12.18;2.55;;;24.00;90.00;;;;;;4994272;28;20170;-81
2022/08/13 00:09:10;;;;;;;4.68;2.60;;;24.00;90.40;;;;;;4994145;28;20201;-80
2022/08/13 00:14:24;;;;;;;10.32;3.30;;;23.90;90.40;;;;;;4994442;28;20184;-80
2022/08/13 00:16:50;;;;;;;2.60;2.40;;;23.80;90.70;;;;;;4993536;28;20168;-81
2022/08/13 00:19:17;;;;;;;3.17;2.58;;;23.80;90.70;;;;;;4992266;28;20209;-81
2022/08/13 00:21:43;;;;;;;4.90;2.42;;;23.70;90.80;;;;;;4993542;28;20181;-81
2022/08/13 00:24:08;;;;;;;16.83;2.20;;;23.60;90.80;;;;;;4994161;28;20268;-82
2022/08/13 00:26:34;;;;;;;3.42;2.30;;;23.60;90.80;;;;;;4994224;28;20303;-82
2022/08/13 00:29:01;;;;;;;5.90;2.55;;;23.50;90.80;;;;;;4993722;28;20220;-81
2022/08/13 00:31:28;;;;;;;10.85;2.67;;;23.50;90.90;;;;;;4992948;28;20197;-82
2022/08/13 00:33:54;;;;;;;4.57;2.63;;;23.40;91.00;;;;;;4993980;28;20197;-83
2022/08/13 00:36:21;;;;;;;4.68;2.13;;;23.60;90.80;;;;;;4992469;28;20443;-81
2022/08/13 00:38:50;;;;;;;14.40;2.55;;;23.50;90.90;;;;;;4993398;28;20261;-82
2022/08/13 00:44:01;;;;;;;5.63;2.20;;;23.60;90.90;;;;;;4992803;28;20180;-81
2022/08/13 00:46:27;;;;;;;2.40;2.20;;;23.70;90.90;;;;;;4992169;28;20173;-82
2022/08/13 00:48:54;;;;;;;7.10;2.70;;;23.40;91.30;;;;;;4992499;28;20212;-81
2022/08/13 00:51:25;;;;;;;12.98;2.28;;;23.50;90.90;;;;;;4991858;28;20283;-81
2022/08/13 00:53:51;;;;;;;3.03;2.72;;;23.30;91.10;;;;;;4992653;28;20193;-81
2022/08/13 00:56:17;;;;;;;4.03;2.75;;;23.30;91.20;;;;;;4993150;28;20259;-81
2022/08/13 00:58:44;;;;;;;3.47;2.85;;;23.10;91.30;;;;;;4993069;28;20221;-82
2022/08/13 01:01:11;;;;;;;6.95;2.55;;;23.00;91.40;;;;;;4991795;28;20197;-81
2022/08/13 01:03:38;;;;;;;2.40;2.20;;;22.90;91.40;;;;;;4991820;28;20618;-81
2022/08/13 01:06:06;;;;;;;6.80;2.00;;;23.00;91.40;;;;;;4990969;28;20170;-82
2022/08/13 01:08:34;;;;;;;4.80;2.75;;;22.90;91.60;;;;;;4991185;28;20608;-81
2022/08/13 01:11:13;;;;;;;5.00;2.38;;;22.80;91.70;;;;;;4992127;28;20211;-81
2022/08/13 01:13:41;;;;;;;3.00;2.53;;;22.90;91.90;;;;;;4992921;28;20165;-83
2022/08/13 01:16:13;;;;;;;8.15;2.30;;;22.90;92.10;;;;;;4992587;28;20170;-81
2022/08/13 01:18:44;;;;;;;3.00;2.22;;;22.90;92.40;;;;;;4993144;28;20180;-81
2022/08/13 01:21:15;;;;;;;10.07;3.03;;;22.80;92.40;;;;;;4991293;28;20193;-82
2022/08/13 01:23:46;;;;;;;6.05;2.92;;;22.80;92.60;;;;;;4991395;28;20189;-81
2022/08/13 01:26:15;;;;;;;3.72;2.33;;;22.90;92.10;;;;;;4992784;28;20240;-82
2022/08/13 01:28:42;;;;;;;2.20;2.00;;;22.80;92.10;;;;;;4991685;28;20169;-82
2022/08/13 01:31:10;;;;;;;3.65;2.28;;;22.80;92.20;;;;;;4992775;28;20219;-82
2022/08/13 01:33:36;;;;;;;3.67;2.95;;;22.80;92.30;;;;;;4990885;28;20173;-81
2022/08/13 01:36:08;;;;;;;17.42;3.00;;;22.80;92.50;;;;;;4991157;28;20268;-82
2022/08/13 01:38:36;;;;;;;8.30;2.80;;;22.50;92.50;;;;;;4992359;28;20169;-84
2022/08/13 01:41:04;;;;;;;4.53;2.13;;;22.60;92.40;;;;;;4991387;28;20192;-82
2022/08/13 01:43:31;;;;;;;9.88;3.03;;;22.40;92.70;;;;;;4991058;28;20173;-84
2022/08/13 01:46:01;;;;;;;7.05;2.58;;;22.40;92.30;;;;;;4993463;28;20260;-83
2022/08/13 01:51:21;;;;;;;2.95;2.67;;;22.40;92.70;;;;;;4996578;28;20708;-82
2022/08/13 01:53:51;;;;;;;2.45;2.17;;;22.50;92.50;;;;;;4995243;28;20272;-81
2022/08/13 01:56:21;;;;;;;9.70;2.40;;;22.60;92.50;;;;;;4995342;28;20676;-81
2022/08/13 01:58:49;;;;;;;3.42;2.13;;;22.60;92.40;;;;;;4995570;28;20208;-82
2022/08/13 02:01:15;;;;;;;12.70;2.45;;;22.50;92.50;;;;;;4994981;28;20185;-83
2022/08/13 02:03:44;;;;;;;8.85;2.33;;;22.50;92.60;;;;;;4995327;28;20322;-82
2022/08/13 02:06:11;;;;;;;5.57;2.47;;;22.50;92.60;;;;;;4995381;28;20173;-81
2022/08/13 02:08:40;;;;;;;2.42;2.22;;;22.50;92.70;;;;;;4995869;28;20172;-81
2022/08/13 02:11:06;;;;;;;2.55;2.35;;;22.40;92.90;;;;;;4994740;28;20223;-81
2022/08/13 02:13:32;;;;;;;4.95;2.65;;;22.30;92.90;;;;;;4994944;28;20169;-81
2022/08/13 02:15:58;;;;;;;2.65;2.08;;;22.40;92.80;;;;;;4996153;28;20188;-81
2022/08/13 02:18:26;;;;;;;16.38;2.83;;;22.40;92.90;;;;;;4996066;28;20185;-81
2022/08/13 02:20:59;;;;;;;10.75;2.78;;;22.40;92.90;;;;;;4995775;28;21330;-81
2022/08/13 02:23:28;;;;;;;5.93;2.20;;;22.40;93.10;;;;;;4994627;28;20212;-81
2022/08/13 02:25:54;;;;;;;10.43;2.90;;;22.50;93.10;;;;;;4996048;28;20172;-81
2022/08/13 02:28:21;;;;;;;3.65;2.20;;;22.40;93.40;;;;;;4995249;28;20169;-81
2022/08/13 02:30:48;;;;;;;2.47;2.22;;;22.20;93.60;;;;;;4994312;28;20224;-81
2022/08/13 02:33:14;;;;;;;7.40;2.63;;;22.30;93.40;;;;;;4995322;28;20204;-81
2022/08/13 02:35:42;;;;;;;6.70;2.65;;;22.40;93.40;;;;;;4995543;28;20169;-81
2022/08/13 02:38:11;;;;;;;9.05;2.40;;;22.30;93.50;;;;;;4994506;28;20639;-81
2022/08/13 02:43:25;;;;;;;3.35;1.98;;;22.20;93.70;;;;;;4995576;28;20637;-82
2022/08/13 02:45:53;;;;;;;2.40;2.20;;;22.30;93.70;;;;;;4993851;28;20260;-80
2022/08/13 02:48:24;;;;;;;9.00;2.78;;;22.10;94.00;;;;;;4995013;28;20224;-81
2022/08/13 02:50:50;;;;;;;5.55;2.15;;;22.10;93.90;;;;;;4994900;28;20205;-80
2022/08/13 02:53:19;;;;;;;3.33;2.35;;;21.90;93.90;;;;;;4994002;28;20597;-81
2022/08/13 02:55:47;;;;;;;10.00;2.90;;;21.90;93.60;;;;;;4993633;28;20191;-81
2022/08/13 02:58:17;;;;;;;2.28;2.08;;;22.00;93.40;;;;;;4995836;28;20169;-81
2022/08/13 03:00:48;;;;;;;3.22;2.47;;;22.00;93.50;;;;;;4993765;28;20243;-81
2022/08/13 03:03:18;;;;;;;4.07;2.20;;;21.90;93.80;;;;;;4994728;28;20199;-81
2022/08/13 03:05:45;;;;;;;5.35;2.35;;;21.70;94.10;;;;;;4993733;28;20196;-82
2022/08/13 03:08:11;;;;;;;7.82;1.92;;;21.80;93.90;;;;;;4993931;28;20181;-81
2022/08/13 03:10:39;;;;;;;5.95;2.30;;;21.70;94.40;;;;;;4994974;28;20209;-82
2022/08/13 03:13:15;;;;;;;8.48;2.47;;;21.70;93.90;;;;;;4993676;28;20161;-82
2022/08/13 03:15:46;;;;;;;6.47;2.40;;;21.80;93.90;;;;;;4993796;28;20518;-81
2022/08/13 03:18:12;;;;;;;8.90;2.67;;;21.80;93.50;;;;;;4993490;28;20173;-82
2022/08/13 03:20:40;;;;;;;5.25;2.10;;;22.00;93.20;;;;;;4994462;28;20308;-82
2022/08/13 03:23:07;;;;;;;6.90;2.13;;;21.90;93.50;;;;;;4993407;28;20221;-82
2022/08/13 03:25:33;;;;;;;9.18;2.92;;;21.90;93.90;;;;;;4994725;28;20181;-82
2022/08/13 03:27:59;;;;;;;4.90;2.47;;;21.90;93.80;;;;;;4994240;28;20169;-81
2022/08/13 03:30:33;;;;;;;4.22;2.42;;;21.80;93.90;;;;;;4993094;28;20307;-82
2022/08/13 03:33:07;;;;;;;6.72;3.03;;;21.90;93.90;;;;;;4993198;28;20280;-81
2022/08/13 03:35:35;;;;;;;3.47;2.20;;;21.70;94.20;;;;;;4993239;28;20533;-81
2022/08/13 03:38:03;;;;;;;8.70;2.53;;;21.70;94.50;;;;;;4993095;28;20253;-81
2022/08/13 03:43:13;;;;;;;7.35;2.20;;;21.70;94.00;;;;;;4994813;28;20640;-82
2022/08/13 03:45:39;;;;;;;2.70;2.38;;;21.60;93.90;;;;;;4993337;28;20177;-81
2022/08/13 03:48:05;;;;;;;6.18;2.20;;;21.60;93.90;;;;;;4994556;28;20169;-82
2022/08/13 03:50:30;;;;;;;2.80;2.50;;;21.60;94.00;;;;;;4992950;28;20651;-82
2022/08/13 03:53:04;;;;;;;5.75;2.40;;;21.50;94.10;;;;;;4993159;28;20173;-82
2022/08/13 03:55:30;;;;;;;2.67;2.45;;;21.50;94.10;;;;;;4993787;28;20173;-81
2022/08/13 03:57:57;;;;;;;2.50;2.30;;;21.50;94.00;;;;;;4992916;28;20177;-83
2022/08/13 04:00:27;;;;;;;5.65;2.55;;;21.40;94.40;;;;;;4996348;28;20235;-84
2022/08/13 04:02:52;;;;;;;7.53;2.60;;;21.50;94.20;;;;;;4995991;28;20223;-82
2022/08/13 04:05:18;;;;;;;4.00;2.30;;;21.50;94.50;;;;;;4993547;28;20185;-83
2022/08/13 04:07:44;;;;;;;10.23;2.28;;;21.40;94.70;;;;;;4993686;28;20173;-83
2022/08/13 04:10:11;;;;;;;2.30;1.95;;;21.50;94.60;;;;;;4992429;28;20287;-82
2022/08/13 04:12:37;;;;;;;3.63;2.20;;;21.60;94.30;;;;;;4993288;28;20169;-85
2022/08/13 04:15:03;;;;;;;10.18;2.50;;;21.40;94.30;;;;;;4994000;28;20215;-84
2022/08/13 04:17:29;;;;;;;3.08;2.45;;;21.40;94.60;;;;;;4992550;28;20615;-82
2022/08/13 04:19:57;;;;;;;7.40;2.33;;;21.40;94.70;;;;;;4993691;28;20185;-83
2022/08/13 04:22:23;;;;;;;3.70;2.30;;;21.40;94.80;;;;;;4993629;28;20209;-84
2022/08/13 04:24:50;;;;;;;5.40;2.13;;;21.30;95.00;;;;;;4992512;28;20645;-83
2022/08/13 04:27:15;;;;;;;3.70;2.33;;;21.10;95.20;;;;;;4992709;28;20169;-82
2022/08/13 04:29:41;;;;;;;4.53;2.63;;;21.20;95.30;;;;;;4992266;28;20772;-83
2022/08/13 04:32:06;;;;;;;6.00;2.63;;;21.30;95.20;;;;;;4993319;28;20536;-83
2022/08/13 04:34:32;;;;;;;5.32;2.05;;;21.30;95.20;;;;;;4992298;28;20165;-82
2022/08/13 04:36:57;;;;;;;3.72;2.50;;;21.20;95.30;;;;;;4993369;28;20236;-81
2022/08/13 04:39:24;;;;;;;6.50;2.53;;;21.20;95.40;;;;;;4993323;28;20172;-81
2022/08/13 04:41:50;;;;;;;3.28;2.40;;;21.30;95.20;;;;;;4992392;28;20189;-82
2022/08/13 04:44:16;;;;;;;4.80;2.78;;;21.20;95.30;;;;;;4991727;28;20177;-82
2022/08/13 04:46:42;;;;;;;3.25;2.80;;;21.30;95.10;;;;;;4992304;28;20256;-81
2022/08/13 04:49:11;;;;;;;3.25;2.10;;;21.30;95.00;;;;;;4993067;28;20173;-82
2022/08/13 04:51:37;;;;;;;7.82;2.50;;;21.20;95.20;;;;;;4992089;28;20563;-83
2022/08/13 04:54:02;;;;;;;8.73;2.15;;;21.30;95.30;;;;;;4992187;28;20173;-84
2022/08/13 04:56:29;;;;;;;3.03;2.25;;;21.40;95.00;;;;;;4992110;28;20181;-81
2022/08/13 04:58:55;;;;;;;6.88;2.53;;;21.40;94.90;;;;;;4992898;28;20184;-82
2022/08/13 05:01:21;;;;;;;2.90;2.30;;;21.30;95.20;;;;;;4991570;28;20185;-82
2022/08/13 05:03:48;;;;;;;5.43;2.60;;;21.00;95.60;;;;;;4993085;28;20162;-81
2022/08/13 05:06:19;;;;;;;5.28;2.80;;;20.90;95.90;;;;;;4993373;28;20181;-82
2022/08/13 05:08:46;;;;;;;6.22;2.55;;;20.90;96.00;;;;;;4991551;28;20206;-81
2022/08/13 05:11:12;;;;;;;12.70;2.55;;;21.00;96.00;;;;;;4991446;28;20255;-82
2022/08/13 05:13:39;;;;;;;4.60;2.47;;;21.10;95.90;;;;;;4991474;28;20653;-82
2022/08/13 05:16:08;;;;;;;3.60;2.35;;;21.10;95.80;;;;;;4991447;28;20173;-81
2022/08/13 05:18:37;;;;;;;7.28;2.13;;;21.20;95.90;;;;;;4991513;28;20177;-82
2022/08/13 05:21:05;;;;;;;7.13;1.95;;;21.20;95.80;;;;;;4990381;28;20181;-82
2022/08/13 05:23:35;;;;;;;6.57;2.55;;;21.30;95.80;;;;;;4992772;28;20192;-82
2022/08/13 05:26:01;;;;;;;9.10;2.28;;;21.40;95.70;;;;;;4992859;28;20169;-81
2022/08/13 05:28:30;;;;;;;13.40;2.85;;;21.50;95.70;;;;;;4993062;28;20508;-82
2022/08/13 05:30:56;;;;;;;7.07;2.47;;;21.70;95.70;;;;;;4992714;28;20205;-82
2022/08/13 05:33:28;;;;;;;13.25;2.53;;;21.70;95.90;;;;;;4991541;28;20176;-81
2022/08/13 05:35:59;;;;;;;9.95;2.22;;;21.80;95.90;;;;;;4993032;28;20175;-82
2022/08/13 05:38:27;;;;;;;6.38;2.20;;;21.90;95.60;;;;;;4991405;28;20165;-83
2022/08/13 05:41:03;;;;;;;7.30;2.60;;;21.90;95.50;;;;;;4992444;28;20181;-82
2022/08/13 05:43:38;;;;;;;3.78;2.00;;;21.90;95.80;;;;;;4991482;28;20582;-82
2022/08/13 05:46:08;;;;;;;2.25;2.05;;;21.90;96.20;;;;;;4990942;28;20176;-82
2022/08/13 05:48:39;;;;;;;6.15;2.75;;;22.00;95.80;;;;;;4992220;28;20169;-82
2022/08/13 05:51:08;;;;;;;6.35;2.45;;;22.10;95.80;;;;;;4990761;28;20240;-82
2022/08/13 05:53:36;;;;;;;9.88;2.40;;;22.20;95.60;;;;;;4992843;28;20228;-83
2022/08/13 05:56:02;;;;;;;5.75;2.30;;;22.30;95.60;;;;;;4991309;28;20183;-83
2022/08/13 05:58:28;;;;;;;11.27;2.75;;;22.10;95.40;;;;;;4991239;28;20165;-83
2022/08/13 06:03:39;;;;;;;3.35;2.03;;;22.30;95.40;;;;;;4992912;28;20184;-83
2022/08/13 06:06:11;;;;;;;6.50;2.47;;;22.30;95.20;;;;;;4992674;28;20179;-84
2022/08/13 06:08:42;;;;;;;11.50;2.17;;;22.50;94.90;;;;;;4993658;28;20641;-83
2022/08/13 06:11:14;;;;;;;6.97;2.25;;;22.50;94.70;;;;;;4993183;28;20237;-83
2022/08/13 06:13:40;;;;;;;10.18;2.53;;;22.70;94.70;;;;;;4992110;28;20705;-83
2022/08/13 06:16:08;;;;;;;7.55;2.50;;;22.70;94.90;;;;;;4993310;28;20173;-84
2022/08/13 06:18:36;;;;;;;15.43;2.30;;;22.60;95.00;;;;;;4991439;28;20173;-83
2022/08/13 06:21:05;;;;;;;9.75;2.88;;;22.70;94.30;;;;;;4991509;28;20544;-83
2022/08/13 06:23:34;;;;;;;14.63;2.85;;;22.90;94.30;;;;;;4992223;28;20211;-83
2022/08/13 06:26:01;;;;;;;13.60;2.58;;;22.70;94.70;;;;;;4991589;28;20199;-83
2022/08/13 06:28:29;;;;;;;12.05;2.20;;;22.80;94.60;;;;;;4993080;28;20192;-84
2022/08/13 06:31:04;;;;;;;3.47;2.30;;;22.90;94.50;;;;;;4991432;28;20209;-84
2022/08/13 06:33:32;;;;;;;5.60;2.72;;;23.10;94.60;;;;;;4995145;28;20185;-80
2022/08/13 06:36:00;;;;;;;2.95;2.10;;;23.00;93.90;;;;;;4996869;28;20176;-84
2022/08/13 06:38:56;;;;;;;7.82;2.10;;;23.20;94.30;;;;;;4996525;28;20174;-81
2022/08/13 06:41:23;;;;;;;5.78;2.20;;;23.40;93.90;;;;;;5004222;28;20237;-81
2022/08/13 06:43:53;;;;;;;6.50;2.10;;;23.50;93.20;;;;;;5017160;28;20184;-81
2022/08/13 06:46:22;;;;;;;7.53;2.53;;;23.60;93.50;;;;;;5018878;28;20188;-81
2022/08/13 06:48:49;;;;;;;19.58;2.45;;;23.70;93.70;;;;;;5015369;28;20161;-92
2022/08/13 06:51:15;;;;;;;8.38;2.42;;;23.90;93.60;;;;;;5017357;28;20268;-82
2022/08/13 06:53:43;;;;;;;4.85;2.17;;;24.10;93.00;;;;;;5016515;28;20249;-81
2022/08/13 06:56:16;;;;;;;4.75;2.28;;;24.30;92.90;;;;;;5015817;28;20167;-80
2022/08/13 06:58:47;;;;;;;12.98;2.38;;;24.70;92.70;;;;;;4997506;28;20180;-80
2022/08/13 07:01:21;;;;;;;2.22;2.03;;;24.90;92.20;;;;;;4998272;28;20200;-79
2022/08/13 07:03:48;;;;;;;2.97;1.77;;;25.00;92.20;;;;;;4995267;28;20164;-79
2022/08/13 07:06:25;;;;;;;4.28;1.80;;;24.90;91.70;;;;;;4995346;28;20223;-79
2022/08/13 07:08:56;;;;;;;17.48;1.70;;;24.80;91.50;;;;;;4995545;28;20197;-79
2022/08/13 07:11:24;;;;;;;16.98;1.80;;;24.90;91.50;;;;;;4995135;28;20215;-79
2022/08/13 07:13:56;;;;;;;5.95;1.90;;;24.90;91.40;;;;;;4995009;28;20255;-79
2022/08/13 07:16:25;;;;;;;7.72;2.00;;;25.00;90.90;;;;;;4994649;28;20185;-79
2022/08/13 07:18:51;;;;;;;14.70;2.47;;;25.20;90.70;;;;;;4993698;28;20181;-79
2022/08/13 07:21:21;;;;;;;6.90;1.90;;;25.40;90.50;;;;;;4994623;28;20188;-80
2022/08/13 07:23:48;;;;;;;6.75;1.73;;;25.40;90.40;;;;;;4994388;28;20181;-80
2022/08/13 07:26:16;;;;;;;1.90;1.70;;;25.30;90.70;;;;;;4995458;28;20224;-81
2022/08/13 07:28:44;;;;;;;2.17;1.60;;;25.70;90.20;;;;;;4995744;28;20260;-79
2022/08/13 07:31:10;;;;;;;6.93;1.45;;;26.60;88.60;;;;;;4993430;28;20967;-80
2022/08/13 07:33:42;;;;;;;2.03;1.60;;;26.90;86.60;;;;;;4995052;28;20212;-82
2022/08/13 07:36:12;;;;;;;6.45;1.05;;;27.50;84.80;;;;;;4993625;28;20169;-83
2022/08/13 07:38:38;;;;;;;2.80;1.23;;;27.70;84.80;;;;;;4995014;28;20166;-83
2022/08/13 07:41:04;;;;;;;3.28;1.83;;;27.70;83.30;;;;;;4994510;28;20614;-92
2022/08/13 07:43:33;;;;;;;5.93;1.23;;;27.60;83.70;;;;;;4992910;28;20220;-81
2022/08/13 07:46:10;;;;;;;2.25;1.25;;;27.50;83.80;;;;;;4994936;28;20161;-83
2022/08/13 07:48:37;;;;;;;5.47;1.40;;;27.50;83.10;;;;;;4992149;28;20181;-83
2022/08/13 07:51:05;;;;;;;2.20;0.95;;;27.60;82.10;;;;;;4994448;28;20276;-83
2022/08/13 07:53:34;;;;;;;2.00;1.00;;;27.50;82.80;;;;;;4994473;28;20507;-83
2022/08/13 07:55:59;;;;;;;1.20;1.10;;;27.50;82.80;;;;;;4992397;28;20260;-83
2022/08/13 07:58:28;;;;;;;4.20;1.27;;;27.40;82.90;;;;;;4993173;28;20277;-83
2022/08/13 08:00:57;;;;;;;7.55;1.35;;;27.50;83.00;;;;;;4992006;28;20280;-82
2022/08/13 08:03:26;;;;;;;4.05;1.40;;;27.50;82.90;;;;;;4993915;28;20161;-83
2022/08/13 08:05:53;;;;;;;1.20;1.10;;;27.60;82.50;;;;;;4994017;28;20200;-83
2022/08/13 08:08:19;;;;;;;7.18;1.10;;;27.80;82.60;;;;;;4994066;28;20633;-83
2022/08/13 08:10:46;;;;;;;3.25;0.93;;;27.90;82.00;;;;;;4993376;28;20217;-85
2022/08/13 08:13:13;;;;;;;5.28;0.98;;;27.90;81.80;;;;;;4992981;28;20173;-82
2022/08/13 08:15:42;;;;;;;1.23;1.13;;;28.00;81.80;;;;;;4992738;28;20173;-82
2022/08/13 08:18:08;;;;;;;19.67;1.20;;;28.00;81.70;;;;;;4993049;28;20199;-82
2022/08/13 08:20:34;;;;;;;11.90;2.58;;;28.20;82.20;;;;;;4992676;28;20653;-83
2022/08/13 08:22:59;;;;;;;0.80;0.80;;;28.20;82.90;;;;;;4994008;28;20185;-83
2022/08/13 08:25:26;;;;;;;4.50;1.20;;;28.40;83.10;;;;;;4994483;28;20175;-83
2022/08/13 08:27:51;;;;;;;8.07;1.25;;;28.40;82.40;;;;;;4992952;28;20256;-84
2022/08/13 08:30:19;;;;;;;3.78;0.88;;;28.60;83.10;;;;;;4994044;28;20296;-83
2022/08/13 08:32:53;;;;;;;2.00;1.20;;;28.70;80.80;;;;;;4993909;28;20220;-83
2022/08/13 08:35:20;;;;;;;2.45;1.08;;;28.80;80.50;;;;;;4992625;28;20173;-84
2022/08/13 08:43:34;;;;;;;1.92;1.17;;;29.20;79.40;;;;;;4993154;28;20236;-82
2022/08/13 08:46:03;;;;;;;5.55;1.85;;;29.20;79.20;;;;;;4991251;28;20169;-82
2022/08/13 08:48:30;;;;;;;1.30;1.05;;;29.40;78.60;;;;;;4992256;28;20653;-82
2022/08/13 08:50:57;;;;;;;4.10;1.30;;;29.60;78.60;;;;;;4992397;28;20255;-82
2022/08/13 08:53:24;;;;;;;3.53;1.20;;;29.70;78.50;;;;;;4992204;28;20169;-82
2022/08/13 08:55:52;;;;;;;0.95;0.90;;;29.80;80.70;;;;;;4991897;28;20170;-82
2022/08/13 08:58:19;;;;;;;1.02;0.70;;;29.40;78.60;;;;;;4993447;28;20168;-82
2022/08/13 09:00:47;;;;;;;11.77;1.73;;;29.60;79.50;;;;;;4993416;28;20269;-82
2022/08/13 09:03:18;;;;;;;4.88;0.95;;;29.70;77.80;;;;;;4992055;28;20622;-83
2022/08/13 09:05:46;;;;;;;1.25;1.15;;;29.70;78.20;;;;;;4991776;28;20725;-82
2022/08/13 09:08:17;;;;;;;2.58;0.95;;;29.90;77.90;;;;;;4993100;28;20637;-82
2022/08/13 09:10:46;;;;;;;6.45;1.00;;;30.20;76.10;;;;;;4991703;28;20287;-82
2022/08/13 09:13:18;;;;;;;1.30;0.82;;;30.20;76.50;;;;;;4992063;28;20184;-82
2022/08/13 09:15:44;;;;;;;2.28;0.90;;;30.30;75.60;;;;;;4993263;28;20633;-82
2022/08/13 09:18:11;;;;;;;1.95;1.10;;;30.30;75.90;;;;;;4993054;28;20177;-83
2022/08/13 09:20:37;;;;;;;4.25;0.90;;;30.30;75.10;;;;;;4992826;28;20185;-82
2022/08/13 09:23:08;;;;;;;0.60;0.60;;;30.20;76.10;;;;;;4991467;28;20266;-82
2022/08/13 09:25:41;;;;;;;6.55;0.90;;;30.30;78.90;;;;;;4992744;28;20717;-82
2022/08/13 09:28:08;;;;;;;0.85;0.75;;;30.50;75.70;;;;;;4991966;28;20622;-82
2022/08/13 09:30:34;;;;;;;5.47;0.73;;;30.60;74.20;;;;;;4990916;28;20295;-81
2022/08/13 09:33:02;;;;;;;0.80;0.68;;;30.60;74.80;;;;;;4992774;28;20164;-81
2022/08/13 09:35:28;;;;;;;1.13;0.70;;;30.60;73.00;;;;;;4991578;28;20206;-83
2022/08/13 09:37:57;;;;;;;2.03;0.85;;;30.70;73.20;;;;;;4992080;28;20173;-90
2022/08/13 09:40:34;;;;;;;5.18;0.95;;;30.70;72.30;;;;;;4992074;28;20196;-81
2022/08/13 09:43:02;;;;;;;1.05;0.75;;;30.70;71.90;;;;;;4993694;28;20188;-81
2022/08/13 09:45:29;;;;;;;5.53;0.80;;;30.70;73.00;;;;;;4992672;28;20573;-82
2022/08/13 09:47:56;;;;;;;3.08;0.70;;;30.90;73.30;;;;;;4991708;28;20161;-81
2022/08/13 09:50:24;;;;;;;1.92;0.90;;;31.10;73.10;;;;;;4991416;28;20715;-81
2022/08/13 09:52:52;;;;;;;0.75;0.75;;;31.20;73.00;;;;;;4991803;28;20165;-81
2022/08/13 09:55:25;;;;;;;12.20;1.00;;;31.00;72.80;;;;;;4991372;28;20260;-81
2022/08/13 09:57:52;;;;;;;1.02;0.73;;;31.10;72.50;;;;;;4991137;28;20169;-82
2022/08/13 10:00:21;;;;;;;0.90;0.90;;;31.20;72.90;;;;;;4992134;28;20185;-81
2022/08/13 10:02:59;;;;;;;1.20;0.55;;;31.10;72.50;;;;;;4991604;28;20165;-81
2022/08/13 10:05:26;;;;;;;0.90;0.88;;;31.10;69.70;;;;;;4992482;28;20211;-81
2022/08/13 10:07:52;;;;;;;1.08;0.60;;;31.30;70.00;;;;;;4995497;28;20248;-81
2022/08/13 10:10:19;;;;;;;0.50;0.50;;;31.30;69.70;;;;;;4996318;28;20215;-82
2022/08/13 10:12:45;;;;;;;0.93;0.70;;;31.20;70.70;;;;;;4996202;28;20161;-80
2022/08/13 10:15:12;;;;;;;9.30;0.77;;;31.30;70.60;;;;;;4994851;28;20243;-81
2022/08/13 10:17:51;;;;;;;1.73;0.70;;;31.40;73.90;;;;;;4994932;28;20169;-81
2022/08/13 10:20:29;;;;;;;0.82;0.82;;;31.20;71.70;;;;;;4996588;28;20271;-81
2022/08/13 10:22:59;;;;;;;2.05;0.70;;;31.20;73.00;;;;;;4996863;28;20189;-81
2022/08/13 10:25:26;;;;;;;0.50;0.50;;;31.30;69.20;;;;;;4994981;28;20252;-84
2022/08/13 10:27:52;;;;;;;3.40;1.05;;;31.30;69.80;;;;;;4996673;28;20230;-82
2022/08/13 10:30:21;;;;;;;1.65;0.85;;;31.30;69.90;;;;;;4996647;28;20608;-87
2022/08/13 10:32:47;;;;;;;8.07;0.75;;;30.90;70.40;;;;;;4995260;28;20176;-81
2022/08/13 10:35:17;;;;;;;5.25;0.70;;;30.90;71.40;;;;;;4995926;28;20495;-83
2022/08/13 10:37:49;;;;;;;0.77;0.77;;;30.70;71.10;;;;;;4995961;28;20308;-85
2022/08/13 10:40:15;;;;;;;4.28;0.95;;;30.80;71.60;;;;;;4994881;28;20220;-83
2022/08/13 10:42:44;;;;;;;6.97;0.80;;;30.90;71.80;;;;;;4996278;28;20247;-83
2022/08/13 10:45:13;;;;;;;1.17;0.80;;;30.90;72.00;;;;;;4994973;28;20589;-82
2022/08/13 10:47:47;;;;;;;0.98;0.80;;;31.00;71.60;;;;;;4994570;28;20172;-81
2022/08/13 10:50:15;;;;;;;4.18;0.80;;;30.90;71.00;;;;;;4994494;28;20328;-81
2022/08/13 10:52:41;;;;;;;0.88;0.60;;;30.90;69.40;;;;;;4994714;28;20250;-83
2022/08/13 10:55:11;;;;;;;3.40;0.80;;;31.00;70.00;;;;;;4994183;28;20169;-82
2022/08/13 10:57:38;;;;;;;0.88;0.70;;;30.90;69.50;;;;;;4996271;28;20165;-81
2022/08/13 11:00:05;;;;;;;2.75;0.80;;;30.80;69.70;;;;;;4995210;28;20244;-81
2022/08/13 11:02:30;;;;;;;4.57;0.57;;;30.80;70.20;;;;;;4995705;28;20169;-81
2022/08/13 11:04:56;;;;;;;2.25;0.98;;;30.90;69.40;;;;;;4995645;28;20199;-82
2022/08/13 11:07:22;;;;;;;6.45;0.85;;;30.90;69.40;;;;;;4995813;28;20208;-81
2022/08/13 11:09:48;;;;;;;1.60;0.50;;;30.90;70.00;;;;;;4994123;28;20223;-82
2022/08/13 11:12:13;;;;;;;6.95;1.08;;;31.00;69.40;;;;;;4995391;28;20634;-82
2022/08/13 11:14:41;;;;;;;4.40;0.80;;;31.10;69.90;;;;;;4995503;28;20169;-82
2022/08/13 11:17:09;;;;;;;7.05;0.68;;;31.20;69.80;;;;;;4994169;28;20173;-83
2022/08/13 11:19:37;;;;;;;1.08;0.90;;;31.20;69.50;;;;;;4994114;28;20192;-81
2022/08/13 11:22:03;;;;;;;0.98;0.80;;;31.10;69.90;;;;;;4994356;28;20264;-81
2022/08/13 11:24:28;;;;;;;1.15;0.70;;;31.10;69.90;;;;;;4995544;28;20212;-81
2022/08/13 11:26:54;;;;;;;8.20;0.70;;;30.90;69.20;;;;;;4994931;28;20216;-79
2022/08/13 11:29:19;;;;;;;0.70;0.70;;;30.90;70.30;;;;;;4997718;28;20172;-81
2022/08/13 11:31:45;;;;;;;14.25;0.90;;;31.00;70.60;;;;;;4995369;28;20234;-80
2022/08/13 11:34:11;;;;;;;0.95;0.82;;;31.10;70.60;;;;;;4995707;28;20168;-81
2022/08/13 11:36:36;;;;;;;0.80;0.80;;;31.10;70.00;;;;;;4995815;28;20184;-82
2022/08/13 11:39:02;;;;;;;2.60;0.80;;;31.10;70.20;;;;;;4997407;28;20529;-82
2022/08/13 11:41:28;;;;;;;1.30;0.70;;;31.30;71.60;;;;;;4995407;28;20184;-81
2022/08/13 11:43:54;;;;;;;1.23;0.73;;;31.30;69.70;;;;;;4993613;28;20176;-81
2022/08/13 11:46:21;;;;;;;4.70;0.90;;;31.30;69.20;;;;;;4994828;28;20646;-81
2022/08/13 11:48:47;;;;;;;5.03;0.60;;;31.20;67.60;;;;;;4995283;28;20247;-80
2022/08/13 11:51:13;;;;;;;25.27;0.88;;;31.10;68.50;;;;;;4993060;28;20228;-82
2022/08/13 11:53:39;;;;;;;4.88;0.82;;;31.10;68.40;;;;;;4993679;28;20181;-81
2022/08/13 11:56:05;;;;;;;1.17;0.73;;;31.30;69.00;;;;;;4994707;28;20633;-86
2022/08/13 11:58:33;;;;;;;6.90;0.80;;;31.20;68.60;;;;;;4993629;28;20633;-82
2022/08/13 12:01:00;;;;;;;14.20;0.80;;;31.00;68.60;;;;;;4994907;28;20577;-81
2022/08/13 12:03:26;;;;;;;0.68;0.68;;;31.10;68.70;;;;;;4994685;28;20223;-83
2022/08/13 12:05:51;;;;;;;1.10;0.63;;;31.10;68.60;;;;;;4995082;28;20187;-82
2022/08/13 12:08:18;;;;;;;0.60;0.52;;;31.10;69.10;;;;;;4994769;28;20243;-83
2022/08/13 12:10:45;;;;;;;2.00;0.70;;;31.30;68.90;;;;;;4995242;28;20259;-83
2022/08/13 12:13:11;;;;;;;0.82;0.80;;;31.30;68.10;;;;;;4998632;28;20172;-81
2022/08/13 12:15:37;;;;;;;0.68;0.50;;;31.50;67.40;;;;;;5013217;28;20242;-81
2022/08/13 12:18:03;;;;;;;0.60;0.60;;;31.40;67.50;;;;;;5013683;28;20172;-79
2022/08/13 12:20:29;;;;;;;6.32;0.93;;;31.40;68.30;;;;;;5013580;28;20199;-80
2022/08/13 12:22:57;;;;;;;4.22;0.70;;;31.30;67.60;;;;;;5014304;28;20179;-80
2022/08/13 12:25:25;;;;;;;5.10;0.70;;;31.40;67.60;;;;;;5014973;28;20173;-79
2022/08/13 12:28:11;;;;;;;0.85;0.60;;;31.50;67.10;;;;;;5015531;28;20168;-80
2022/08/13 12:30:37;;;;;;;0.60;0.60;;;31.50;67.20;;;;;;5012979;28;20259;-80
2022/08/13 12:33:03;;;;;;;4.68;0.65;;;31.50;66.70;;;;;;5012464;28;20676;-80
2022/08/13 12:35:29;;;;;;;9.52;1.02;;;31.60;66.70;;;;;;5013491;28;20167;-81
2022/08/13 12:37:55;;;;;;;1.40;0.70;;;31.60;67.00;;;;;;5012335;28;20160;-80
2022/08/13 12:40:20;;;;;;;0.77;0.70;;;31.50;66.80;;;;;;5011567;28;20287;-79
2022/08/13 12:42:46;;;;;;;0.70;0.70;;;31.50;66.80;;;;;;5013343;28;20172;-79
2022/08/13 12:45:13;;;;;;;0.68;0.68;;;31.50;66.40;;;;;;5013437;28;20665;-80
2022/08/13 12:47:40;;;;;;;5.47;0.70;;;31.50;66.80;;;;;;5013471;28;20175;-79
2022/08/13 12:50:06;;;;;;;1.35;0.70;;;31.40;67.00;;;;;;5012692;28;20207;-82
2022/08/13 12:52:31;;;;;;;5.70;0.90;;;31.60;66.90;;;;;;5012852;28;20168;-82
2022/08/13 12:54:57;;;;;;;1.33;0.60;;;31.60;67.60;;;;;;5013391;28;20263;-82
2022/08/13 12:57:22;;;;;;;2.08;0.70;;;31.70;66.90;;;;;;5013293;28;20168;-81
2022/08/13 12:59:48;;;;;;;0.88;0.68;;;31.50;67.40;;;;;;5015793;28;20195;-82
2022/08/13 13:02:14;;;;;;;5.15;0.80;;;31.50;66.60;;;;;;5011879;28;20176;-82
2022/08/13 13:04:43;;;;;;;2.80;0.60;;;31.70;67.00;;;;;;5013095;28;20533;-81
2022/08/13 13:07:09;;;;;;;10.98;0.80;;;31.60;67.30;;;;;;5013613;28;20168;-81
2022/08/13 13:09:34;;;;;;;5.93;0.70;;;31.60;67.00;;;;;;5012782;28;20175;-82
2022/08/13 13:12:00;;;;;;;1.70;0.80;;;31.60;67.20;;;;;;5013447;28;20230;-82
2022/08/13 13:14:25;;;;;;;0.77;0.57;;;31.60;68.10;;;;;;5013380;28;20184;-81